createdAt,value
2022-11-23T00:01:18.429Z,4.16
2022-11-23T00:03:46.217Z,4.18
2022-11-23T00:06:13.611Z,4.18
2022-11-23T00:08:41.882Z,4.19
2022-11-23T00:11:09.035Z,4.17
2022-11-23T00:13:35.937Z,4.18
2022-11-23T00:16:05.367Z,4.17
2022-11-23T00:18:32.125Z,4.13
2022-11-23T00:20:58.909Z,4.09
2022-11-23T00:23:25.610Z,4.10
2022-11-23T00:25:53.777Z,4.05
2022-11-23T00:28:20.498Z,4.04
2022-11-23T00:30:50.190Z,4.04
2022-11-23T00:33:17.216Z,4.08
2022-11-23T00:35:44.188Z,4.16
2022-11-23T00:38:11.105Z,4.18
2022-11-23T00:40:37.768Z,4.20
2022-11-23T00:43:06.057Z,4.23
2022-11-23T00:45:32.847Z,4.27
2022-11-23T00:47:59.465Z,4.33
2022-11-23T00:50:26.127Z,4.37
2022-11-23T00:52:52.828Z,4.38
2022-11-23T00:55:19.675Z,4.38
2022-11-23T00:57:46.429Z,4.39
2022-11-23T01:00:16.781Z,4.44
2022-11-23T01:02:43.487Z,4.45
2022-11-23T01:05:10.286Z,4.49
2022-11-23T01:07:37.001Z,4.50
2022-11-23T01:10:04.345Z,4.53
2022-11-23T01:12:31.041Z,4.56
2022-11-23T01:14:57.652Z,4.62
2022-11-23T01:17:40.677Z,4.62
2022-11-23T01:20:09.337Z,4.67
2022-11-23T01:22:36.468Z,4.68
2022-11-23T01:25:03.539Z,4.64
2022-11-23T01:27:30.229Z,4.69
2022-11-23T01:29:56.966Z,4.68
2022-11-23T01:32:25.144Z,4.71
2022-11-23T01:34:51.936Z,4.68
2022-11-23T01:37:18.662Z,4.68
2022-11-23T01:39:45.229Z,4.65
2022-11-23T01:42:16.531Z,4.65
2022-11-23T01:44:44.549Z,4.63
2022-11-23T01:47:11.416Z,4.61
2022-11-23T01:49:42.898Z,4.64
2022-11-23T01:52:12.999Z,4.68
2022-11-23T01:54:44.467Z,4.66
2022-11-23T01:57:18.649Z,4.70
2022-11-23T01:59:46.325Z,4.69
2022-11-23T02:02:14.326Z,4.67
2022-11-23T02:04:46.012Z,4.69
2022-11-23T02:07:14.627Z,4.70
2022-11-23T02:09:42.665Z,4.70
2022-11-23T02:12:11.155Z,4.72
2022-11-23T02:14:38.438Z,4.72
2022-11-23T02:17:05.155Z,4.71
2022-11-23T02:19:47.575Z,4.68
2022-11-23T02:22:24.167Z,4.69
2022-11-23T02:24:55.216Z,4.71
2022-11-23T02:27:24.109Z,4.74
2022-11-23T02:29:52.268Z,4.68
2022-11-23T02:32:23.379Z,4.66
2022-11-23T02:34:50.472Z,4.64
2022-11-23T02:37:18.720Z,4.66
2022-11-23T02:39:48.234Z,4.66
2022-11-23T02:42:15.088Z,4.65
2022-11-23T02:44:49.900Z,4.61
2022-11-23T02:47:16.726Z,4.62
2022-11-23T02:49:46.913Z,4.68
2022-11-23T02:52:14.368Z,4.70
2022-11-23T02:54:41.004Z,4.72
2022-11-23T02:57:08.258Z,4.75
2022-11-23T02:59:35.190Z,4.75
2022-11-23T03:02:04.965Z,4.75
2022-11-23T03:04:31.880Z,4.74
2022-11-23T03:06:58.576Z,4.71
2022-11-23T03:09:26.472Z,4.71
2022-11-23T03:11:53.820Z,4.73
2022-11-23T03:14:20.995Z,4.78
2022-11-23T03:16:47.743Z,4.75
2022-11-23T03:19:15.914Z,4.77
2022-11-23T03:21:42.611Z,4.79
2022-11-23T03:24:09.304Z,4.79
2022-11-23T03:26:36.045Z,4.77
2022-11-23T03:29:02.699Z,4.82
2022-11-23T03:31:29.420Z,4.82
2022-11-23T03:33:56.100Z,4.80
2022-11-23T03:36:24.181Z,4.80
2022-11-23T03:38:50.889Z,4.81
2022-11-23T03:41:17.648Z,4.81
2022-11-23T03:43:44.308Z,4.78
2022-11-23T03:46:10.954Z,4.83
2022-11-23T03:48:37.589Z,4.86
2022-11-23T03:51:04.576Z,4.83
2022-11-23T03:53:32.555Z,4.75
2022-11-23T03:55:59.161Z,4.78
2022-11-23T03:58:26.001Z,4.75
2022-11-23T04:00:52.692Z,4.75
2022-11-23T04:03:19.403Z,4.72
2022-11-23T04:05:46.193Z,4.70
2022-11-23T04:08:12.946Z,4.65
2022-11-23T04:10:40.962Z,4.65
2022-11-23T04:13:07.660Z,4.70
2022-11-23T04:15:34.338Z,4.68
2022-11-23T04:18:01.014Z,4.67
2022-11-23T04:20:27.810Z,4.64
2022-11-23T04:22:54.751Z,4.66
2022-11-23T04:25:21.462Z,4.61
2022-11-23T04:27:49.519Z,4.63
2022-11-23T04:30:16.389Z,4.63
2022-11-23T04:32:44.432Z,4.61
2022-11-23T04:35:11.090Z,4.60
2022-11-23T04:37:37.973Z,4.62
2022-11-23T04:40:05.945Z,4.63
2022-11-23T04:42:32.564Z,4.62
2022-11-23T04:45:01.003Z,4.65
2022-11-23T04:47:27.780Z,4.68
2022-11-23T04:49:54.489Z,4.74
2022-11-23T04:52:21.199Z,4.76
2022-11-23T04:54:47.825Z,4.72
2022-11-23T04:57:14.468Z,4.74
2022-11-23T04:59:41.353Z,4.74
2022-11-23T05:02:10.248Z,4.70
2022-11-23T05:04:36.965Z,4.72
2022-11-23T05:07:03.964Z,4.78
2022-11-23T05:09:31.307Z,4.74
2022-11-23T05:11:59.121Z,4.73
2022-11-23T05:14:25.808Z,4.74
2022-11-23T05:16:52.536Z,4.75
2022-11-23T05:19:20.537Z,4.75
2022-11-23T05:21:47.155Z,4.71
2022-11-23T05:24:13.778Z,4.71
2022-11-23T05:26:40.548Z,4.70
2022-11-23T05:29:07.291Z,4.66
2022-11-23T05:31:34.012Z,4.63
2022-11-23T05:34:00.703Z,4.66
2022-11-23T05:36:29.285Z,4.66
2022-11-23T05:38:55.956Z,4.62
2022-11-23T05:41:22.650Z,4.62
2022-11-23T05:43:49.325Z,4.57
2022-11-23T05:46:16.296Z,4.57
2022-11-23T05:48:42.971Z,4.59
2022-11-23T05:51:10.271Z,4.59
2022-11-23T05:53:38.397Z,4.57
2022-11-23T05:56:05.856Z,4.62
2022-11-23T05:58:32.487Z,4.65
2022-11-23T06:00:59.718Z,4.65
2022-11-23T06:03:26.664Z,4.71
2022-11-23T06:05:53.413Z,4.73
2022-11-23T06:08:20.301Z,4.71
2022-11-23T06:10:48.374Z,4.71
2022-11-23T06:13:15.037Z,4.73
2022-11-23T06:15:41.765Z,4.78
2022-11-23T06:18:09.317Z,4.80
2022-11-23T06:20:36.091Z,4.77
2022-11-23T06:23:02.799Z,4.82
2022-11-23T06:25:29.612Z,4.78
2022-11-23T06:27:59.108Z,4.77
2022-11-23T06:30:27.864Z,4.75
2022-11-23T06:32:54.631Z,4.75
2022-11-23T06:35:21.372Z,4.76
2022-11-23T06:37:49.268Z,4.78
2022-11-23T06:40:16.203Z,4.77
2022-11-23T06:42:43.102Z,4.77
2022-11-23T06:45:12.003Z,4.77
2022-11-23T06:47:38.833Z,4.80
2022-11-23T06:50:06.785Z,4.80
2022-11-23T06:52:33.461Z,4.77
2022-11-23T06:55:00.203Z,4.76
2022-11-23T06:57:26.876Z,4.75
2022-11-23T06:59:53.641Z,4.78
2022-11-23T07:02:21.683Z,4.78
2022-11-23T07:04:48.486Z,4.81
2022-11-23T07:07:15.206Z,4.77
2022-11-23T07:09:41.978Z,4.78
2022-11-23T07:12:08.799Z,4.81
2022-11-23T07:14:35.610Z,4.82
2022-11-23T07:17:02.413Z,4.82
2022-11-23T07:19:30.911Z,4.86
2022-11-23T07:21:57.896Z,4.84
2022-11-23T07:24:24.652Z,4.86
2022-11-23T07:26:51.841Z,4.89
2022-11-23T07:29:18.645Z,4.88
2022-11-23T07:31:45.357Z,4.87
2022-11-23T07:34:12.600Z,4.93
2022-11-23T07:36:40.616Z,4.95
2022-11-23T07:39:07.668Z,5.02
2022-11-23T07:41:34.315Z,5.05
2022-11-23T07:44:01.036Z,5.07
2022-11-23T07:46:27.782Z,5.09
2022-11-23T07:48:59.417Z,5.11
2022-11-23T07:51:26.190Z,5.14
2022-11-23T07:53:54.405Z,5.19
2022-11-23T07:56:21.230Z,5.21
2022-11-23T07:58:47.963Z,5.22
2022-11-23T08:01:15.113Z,5.23
2022-11-23T08:03:42.044Z,5.20
2022-11-23T08:06:09.807Z,5.25
2022-11-23T08:08:36.633Z,5.23
2022-11-23T08:11:06.511Z,5.22
2022-11-23T08:13:34.668Z,5.23
2022-11-23T08:16:01.792Z,5.26
2022-11-23T08:18:28.505Z,5.20
2022-11-23T08:20:55.376Z,5.20
2022-11-23T08:23:22.426Z,5.23
2022-11-23T08:25:49.112Z,5.16
2022-11-23T08:28:17.298Z,5.13
2022-11-23T08:30:44.354Z,5.13
2022-11-23T08:33:12.466Z,5.17
2022-11-23T08:35:41.747Z,5.12
2022-11-23T08:38:09.772Z,5.08
2022-11-23T08:40:37.702Z,5.13
2022-11-23T08:43:05.313Z,5.12
2022-11-23T08:45:33.455Z,5.09
2022-11-23T08:48:01.089Z,5.10
2022-11-23T08:50:29.311Z,5.15
2022-11-23T08:52:56.854Z,5.18
2022-11-23T08:55:24.343Z,5.27
2022-11-23T08:57:51.449Z,5.20
2022-11-23T09:00:20.590Z,5.28
2022-11-23T09:02:48.770Z,5.26
2022-11-23T09:05:15.448Z,5.19
2022-11-23T09:07:42.373Z,5.21
2022-11-23T09:10:13.628Z,5.28
2022-11-23T09:12:43.579Z,5.24
2022-11-23T09:15:10.731Z,5.33
2022-11-23T09:17:37.572Z,5.43
2022-11-23T09:20:07.088Z,5.62
2022-11-23T09:22:33.877Z,5.63
2022-11-23T09:25:00.740Z,5.64
2022-11-23T09:27:27.477Z,5.55
2022-11-23T09:29:54.269Z,5.60
2022-11-23T09:32:21.120Z,5.61
2022-11-23T09:34:47.976Z,5.68
2022-11-23T09:37:16.091Z,5.72
2022-11-23T09:39:43.586Z,5.74
2022-11-23T09:42:32.110Z,5.79
2022-11-23T09:45:11.967Z,5.85
2022-11-23T09:48:01.837Z,5.80
2022-11-23T09:50:33.342Z,5.68
2022-11-23T09:53:07.737Z,5.63
2022-11-23T09:55:39.306Z,5.49
2022-11-23T09:58:07.563Z,5.42
2022-11-23T10:00:43.561Z,5.41
2022-11-23T10:03:15.658Z,5.41
2022-11-23T10:05:47.918Z,5.38
2022-11-23T10:08:22.061Z,5.40
2022-11-23T10:10:56.603Z,5.50
2022-11-23T10:13:34.374Z,5.60
2022-11-23T10:16:23.334Z,5.65
2022-11-23T10:18:57.499Z,5.74
2022-11-23T10:21:35.239Z,5.85
2022-11-23T10:24:16.363Z,5.90
2022-11-23T10:26:45.409Z,5.96
2022-11-23T10:29:18.155Z,5.89
2022-11-23T10:31:52.591Z,5.87
2022-11-23T10:34:36.930Z,5.95
2022-11-23T10:37:03.714Z,5.94
2022-11-23T10:39:31.873Z,5.94
2022-11-23T10:42:03.610Z,5.83
2022-11-23T10:44:33.147Z,5.80
2022-11-23T10:47:00.393Z,5.79
2022-11-23T10:49:30.652Z,5.84
2022-11-23T10:51:59.146Z,5.88
2022-11-23T10:54:29.518Z,5.95
2022-11-23T10:56:59.022Z,6.12
2022-11-23T10:59:37.375Z,6.20
2022-11-23T11:02:19.702Z,6.29
2022-11-23T11:04:49.938Z,6.27
2022-11-23T11:07:22.713Z,6.38
2022-11-23T11:09:52.370Z,6.51
2022-11-23T11:12:20.690Z,6.45
2022-11-23T11:15:05.199Z,6.71
2022-11-23T11:17:39.448Z,6.98
2022-11-23T11:20:31.431Z,7.34
2022-11-23T11:23:00.900Z,7.55
2022-11-23T11:25:30.894Z,7.53
2022-11-23T11:27:59.749Z,7.57
2022-11-23T11:30:32.436Z,7.10
2022-11-23T11:33:05.521Z,6.87
2022-11-23T11:35:35.247Z,6.82
2022-11-23T11:38:11.017Z,6.70
2022-11-23T11:40:42.600Z,6.57
2022-11-23T11:43:16.491Z,6.85
2022-11-23T11:45:59.801Z,6.90
2022-11-23T11:48:35.801Z,7.00
2022-11-23T11:51:07.507Z,7.01
2022-11-23T11:53:42.666Z,6.75
2022-11-23T11:56:18.833Z,6.84
2022-11-23T11:58:57.312Z,6.89
2022-11-23T12:01:36.347Z,6.94
2022-11-23T12:04:11.645Z,6.97
2022-11-23T12:06:46.595Z,7.23
2022-11-23T12:09:19.343Z,7.23
2022-11-23T12:11:46.765Z,7.27
2022-11-23T12:14:17.376Z,7.51
2022-11-23T12:17:17.035Z,7.55
2022-11-23T12:19:46.688Z,7.51
2022-11-23T12:22:29.440Z,7.49
2022-11-23T12:25:15.290Z,7.58
2022-11-23T12:27:53.180Z,7.65
2022-11-23T12:30:30.534Z,7.57
2022-11-23T12:33:23.523Z,7.39
2022-11-23T12:36:14.943Z,-147.88
2022-11-23T12:38:51.535Z,-147.88
2022-11-23T12:41:24.716Z,-147.88
2022-11-23T12:44:37.608Z,-147.88
2022-11-23T12:47:17.115Z,-147.88
2022-11-23T12:49:51.929Z,-147.88
2022-11-23T12:52:35.640Z,-147.88
2022-11-23T12:55:19.583Z,-147.88
2022-11-23T12:57:53.164Z,-147.88
2022-11-23T13:00:22.658Z,-147.88
2022-11-23T13:03:31.919Z,-147.88
2022-11-23T13:06:40.248Z,-147.88
2022-11-23T13:09:35.103Z,-147.88
2022-11-23T13:12:21.551Z,-147.88
2022-11-23T13:15:01.482Z,-147.88
2022-11-23T13:17:41.569Z,-147.88
2022-11-23T13:20:50.305Z,-147.88
2022-11-23T13:23:22.460Z,7.14
2022-11-23T13:26:17.850Z,7.27
2022-11-23T13:28:47.876Z,7.31
2022-11-23T13:31:25.553Z,7.41
2022-11-23T13:33:56.396Z,7.41
2022-11-23T13:37:14.432Z,7.42
2022-11-23T13:40:03.853Z,7.29
2022-11-23T13:42:34.405Z,7.16
2022-11-23T13:45:28.652Z,7.04
2022-11-23T13:48:41.223Z,7.04
2022-11-23T13:51:05.072Z,6.99
2022-11-23T13:53:36.512Z,6.99
2022-11-23T13:56:24.983Z,6.89
2022-11-23T13:58:55.356Z,6.87
2022-11-23T14:02:15.367Z,6.85
2022-11-23T14:04:45.801Z,6.75
2022-11-23T14:07:18.091Z,6.76
2022-11-23T14:09:50.689Z,6.68
2022-11-23T14:12:25.740Z,6.69
2022-11-23T14:15:01.147Z,6.67
2022-11-23T14:18:15.441Z,6.65
2022-11-23T14:21:04.154Z,6.63
2022-11-23T14:24:09.935Z,6.52
2022-11-23T14:26:52.096Z,6.44
2022-11-23T14:30:02.792Z,6.46
2022-11-23T14:32:43.200Z,6.38
2022-11-23T14:35:24.297Z,6.32
2022-11-23T14:38:33.562Z,6.20
2022-11-23T14:41:08.387Z,6.18
2022-11-23T14:43:40.430Z,6.17
2022-11-23T14:46:15.180Z,6.10
2022-11-23T14:48:44.496Z,6.02
2022-11-23T14:51:16.394Z,5.99
2022-11-23T14:53:47.358Z,5.99
2022-11-23T14:56:31.469Z,5.94
2022-11-23T14:59:06.694Z,5.86
2022-11-23T15:01:36.655Z,5.82
2022-11-23T15:04:09.636Z,5.85
2022-11-23T15:06:45.505Z,5.72
2022-11-23T15:09:28.171Z,5.67
2022-11-23T15:12:06.261Z,5.68
2022-11-23T15:14:35.290Z,5.53
2022-11-23T15:17:16.393Z,5.42
2022-11-23T15:19:43.388Z,5.41
2022-11-23T15:22:20.715Z,5.47
2022-11-23T15:24:48.696Z,5.51
2022-11-23T15:27:17.085Z,5.44
2022-11-23T15:29:53.039Z,5.43
2022-11-23T15:32:33.673Z,5.39
2022-11-23T15:35:03.618Z,5.32
2022-11-23T15:37:32.964Z,5.19
2022-11-23T15:40:00.606Z,5.09
2022-11-23T15:42:28.515Z,5.10
2022-11-23T15:44:56.744Z,5.12
2022-11-23T15:47:27.931Z,5.10
2022-11-23T15:50:00.368Z,5.09
2022-11-23T15:52:30.228Z,5.09
2022-11-23T15:54:58.088Z,5.18
2022-11-23T15:57:26.583Z,5.16
2022-11-23T15:59:58.573Z,5.15
2022-11-23T16:02:26.952Z,5.12
2022-11-23T16:05:05.723Z,5.18
2022-11-23T16:07:33.571Z,-147.88
2022-11-23T16:10:18.187Z,5.36
2022-11-23T16:12:50.139Z,5.37
2022-11-23T16:15:41.635Z,5.41
2022-11-23T16:18:20.470Z,5.48
2022-11-23T16:20:49.285Z,5.52
2022-11-23T16:23:19.756Z,5.56
2022-11-23T16:25:54.416Z,5.58
2022-11-23T16:28:27.755Z,5.66
2022-11-23T16:30:56.554Z,5.72
2022-11-23T16:33:23.866Z,5.72
2022-11-23T16:35:50.946Z,5.67
2022-11-23T16:38:17.922Z,5.67
2022-11-23T16:40:48.097Z,5.64
2022-11-23T16:43:16.036Z,5.67
2022-11-23T16:45:45.106Z,5.70
2022-11-23T16:48:40.568Z,5.74
2022-11-23T16:51:10.976Z,5.80
2022-11-23T16:54:11.325Z,5.89
2022-11-23T16:56:28.996Z,5.80
2022-11-23T16:58:56.151Z,5.74
2022-11-23T17:01:24.866Z,5.76
2022-11-23T17:03:54.985Z,5.77
2022-11-23T17:06:25.116Z,5.81
2022-11-23T17:09:00.526Z,5.73
2022-11-23T17:11:35.400Z,5.76
2022-11-23T17:14:04.597Z,5.78
2022-11-23T17:16:34.783Z,-147.88
2022-11-23T17:19:03.311Z,6.60
2022-11-23T17:21:29.984Z,-147.88
2022-11-23T17:23:56.798Z,5.89
2022-11-23T17:26:31.374Z,5.93
2022-11-23T17:29:01.492Z,5.94
2022-11-23T17:31:28.534Z,6.16
2022-11-23T17:33:55.443Z,6.13
2022-11-23T17:36:24.421Z,6.08
2022-11-23T17:38:51.367Z,6.02
2022-11-23T17:41:18.203Z,5.95
2022-11-23T17:43:46.190Z,5.94
2022-11-23T17:46:19.167Z,5.95
2022-11-23T17:48:46.649Z,5.88
2022-11-23T17:51:13.739Z,5.88
2022-11-23T17:53:42.023Z,5.84
2022-11-23T17:56:17.007Z,5.80
2022-11-23T17:58:44.222Z,5.70
2022-11-23T18:01:13.913Z,5.65
2022-11-23T18:03:41.163Z,5.61
2022-11-23T18:06:13.063Z,5.54
2022-11-23T18:08:41.778Z,5.39
2022-11-23T18:11:09.035Z,5.29
2022-11-23T18:13:36.031Z,5.20
2022-11-23T18:16:03.715Z,5.12
2022-11-23T18:18:30.913Z,5.02
2022-11-23T18:20:59.447Z,4.92
2022-11-23T18:23:26.527Z,4.92
2022-11-23T18:26:02.235Z,4.84
2022-11-23T18:28:29.605Z,4.94
2022-11-23T18:30:57.076Z,4.77
2022-11-23T18:33:24.524Z,4.66
2022-11-23T18:35:51.374Z,-147.88
2022-11-23T18:38:18.650Z,-147.88
2022-11-23T18:40:45.443Z,4.66
2022-11-23T18:43:13.606Z,4.29
2022-11-23T18:45:55.325Z,4.23
2022-11-23T18:48:23.158Z,4.26
2022-11-23T18:50:49.991Z,4.24
2022-11-23T18:53:17.323Z,4.20
2022-11-23T18:55:44.189Z,4.22
2022-11-23T18:58:10.995Z,4.25
2022-11-23T19:00:39.164Z,4.24
2022-11-23T19:03:05.992Z,4.22
2022-11-23T19:05:34.342Z,4.26
2022-11-23T19:08:04.512Z,4.63
2022-11-23T19:10:32.419Z,5.02
2022-11-23T19:13:04.899Z,4.96
2022-11-23T19:15:32.564Z,4.68
2022-11-23T19:18:01.026Z,4.50
2022-11-23T19:20:29.334Z,4.40
2022-11-23T19:22:56.377Z,4.34
2022-11-23T19:25:23.184Z,4.34
2022-11-23T19:27:51.374Z,4.34
2022-11-23T19:30:18.487Z,4.32
2022-11-23T19:32:45.341Z,4.32
2022-11-23T19:35:13.588Z,4.32
2022-11-23T19:37:40.408Z,4.35
2022-11-23T19:40:08.751Z,4.45
2022-11-23T19:42:36.071Z,4.49
2022-11-23T19:45:03.660Z,4.52
2022-11-23T19:47:31.681Z,4.53
2022-11-23T19:49:59.010Z,-147.88
2022-11-23T19:52:48.136Z,-147.88
2022-11-23T19:55:16.230Z,-147.88
2022-11-23T19:57:42.961Z,-147.88
2022-11-23T20:00:12.018Z,-147.88
2022-11-23T20:02:39.256Z,-147.88
2022-11-23T20:05:07.899Z,-147.88
2022-11-23T20:07:36.114Z,-147.88
2022-11-23T20:10:03.251Z,-147.88
2022-11-23T20:12:29.882Z,-147.88
2022-11-23T20:14:56.530Z,-147.88
2022-11-23T20:17:23.287Z,-147.88
2022-11-23T20:19:50.025Z,-147.88
2022-11-23T20:22:16.736Z,-147.88
2022-11-23T20:24:44.839Z,-147.88
2022-11-23T20:27:11.697Z,-147.88
2022-11-23T20:29:38.418Z,-147.88
2022-11-23T20:32:05.244Z,-147.88
2022-11-23T20:34:32.023Z,-147.88
2022-11-23T20:36:59.955Z,-147.88
2022-11-23T20:39:28.820Z,-147.88
2022-11-23T20:41:58.871Z,-147.88
2022-11-23T20:44:30.748Z,-147.88
2022-11-23T20:47:02.228Z,-147.88
2022-11-23T20:49:30.302Z,-147.88
2022-11-23T20:51:57.242Z,-147.88
2022-11-23T20:54:23.946Z,-147.88
2022-11-23T20:56:50.719Z,-147.88
2022-11-23T20:59:19.953Z,-147.88
2022-11-23T21:01:46.838Z,-147.88
2022-11-23T21:04:13.618Z,-147.88
2022-11-23T21:06:41.194Z,-147.88
2022-11-23T21:09:09.071Z,-147.88
2022-11-23T21:11:54.651Z,-147.88
2022-11-23T21:14:27.284Z,-147.88
2022-11-23T21:16:56.181Z,-147.88
2022-11-23T21:19:24.792Z,-147.88
2022-11-23T21:21:52.262Z,-147.88
2022-11-23T21:24:19.682Z,-147.88
2022-11-23T21:26:47.186Z,-147.88
2022-11-23T21:29:14.035Z,-147.88
2022-11-23T21:31:43.834Z,-147.88
2022-11-23T21:34:17.670Z,-147.88
2022-11-23T21:36:44.349Z,-147.88
2022-11-23T21:39:11.944Z,-147.88
2022-11-23T21:41:39.251Z,-147.88
2022-11-23T21:44:07.586Z,-147.88
2022-11-23T21:46:35.152Z,-147.88
2022-11-23T21:49:04.878Z,-147.88
2022-11-23T21:51:32.298Z,-147.88
2022-11-23T21:54:00.396Z,-147.88
2022-11-23T21:56:28.281Z,-147.88
2022-11-23T21:58:55.586Z,-147.88
2022-11-23T22:01:24.271Z,-147.88
2022-11-23T22:03:52.654Z,-147.88
2022-11-23T22:06:21.574Z,-147.88
2022-11-23T22:08:50.166Z,-147.88
2022-11-23T22:11:19.187Z,-147.88
2022-11-23T22:13:46.075Z,-147.88
2022-11-23T22:16:15.062Z,-147.88
2022-11-23T22:18:42.053Z,-147.88
2022-11-23T22:21:09.424Z,-147.88
2022-11-23T22:23:38.574Z,-147.88
2022-11-23T22:26:06.893Z,-147.88
2022-11-23T22:28:37.014Z,-147.88
2022-11-23T22:31:04.142Z,-147.88
2022-11-23T22:33:31.261Z,-147.88
2022-11-23T22:36:01.430Z,-147.88
2022-11-23T22:38:28.999Z,-147.88
2022-11-23T22:40:57.073Z,-147.88
2022-11-23T22:43:23.725Z,-147.88
2022-11-23T22:45:50.681Z,-147.88
2022-11-23T22:48:17.626Z,-147.88
2022-11-23T22:50:55.331Z,-147.88
2022-11-23T22:53:22.170Z,-147.88
2022-11-23T22:55:48.985Z,-147.88
2022-11-23T22:58:17.160Z,-147.88
2022-11-23T23:00:43.922Z,-147.88
2022-11-23T23:03:11.158Z,-147.88
2022-11-23T23:05:38.380Z,-147.88
2022-11-23T23:08:05.675Z,-147.88
2022-11-23T23:10:34.348Z,-147.88
2022-11-23T23:13:02.097Z,-147.88
2022-11-23T23:15:30.657Z,-147.88
2022-11-23T23:17:57.570Z,-147.88
2022-11-23T23:20:24.301Z,-147.88
2022-11-23T23:22:51.619Z,-147.88
2022-11-23T23:25:19.220Z,-147.88
2022-11-23T23:27:45.934Z,-147.88
2022-11-23T23:30:13.481Z,-147.88
2022-11-23T23:32:41.581Z,-147.88
2022-11-23T23:35:09.249Z,-147.88
2022-11-23T23:37:36.020Z,-147.88
2022-11-23T23:40:03.532Z,-147.88
2022-11-23T23:42:30.414Z,-147.88
2022-11-23T23:44:57.071Z,-147.88
2022-11-23T23:47:23.750Z,-147.88
2022-11-23T23:49:51.866Z,-147.88
2022-11-23T23:52:18.573Z,-147.88
2022-11-23T23:54:45.225Z,-147.88
2022-11-23T23:57:12.449Z,-147.88
2022-11-23T23:59:39.275Z,-147.88
